Jamestown, North Dakota
Current Conditions -  °F | °C
As of 8:56 PM on Thursday 18 Dec 2014 (Local Time) from KJMS Reporting Station
Overcast Overcast  
Wind Chill: 12°   Ceiling: 700
Heat Index: 23°   Visibility: 7mi
Dew Point: 21°   Wind: 12mph
Humidity: 92%   Direction: 180°S
Pressure: 30.06"   Gusts: NA
Location:  46.91°N, 98.71°W
Report Text: KJMS 190256Z AUTO 18010KT 7SM OVC007 M05/M06 A3006 RMK AO2 SLP207 60000 T10501061 58003
Loading
Personal Weather Stations






























Interactive Weather Map New forecast layout! Learn more

10-Day Weather Forecast

Advertisements
Track Severe Weather on mobile